Lifter — V2DD4 — position and weather

sailwx.info

Track history (hours):
 
Tides and Currents Weather Stations Pressure Air Temp Water Temp Dewpoint Dewpoint Depression Visibility Wind Speed Wind Dir Waves Ship Positions

Lifter

Last reported at 2015-Jul-04 17:25 UTC. Time now 2015-Jul-07 21:58 UTC.
Position N 37°38' E 023°46'.

Length 118 m; draft 5.9 m.

Type: Ship. MMSI: 305175000.

Date/timePositionNaut miles runAvg speedWind from/ knotsBaromVisibWave heightAir tempDewpointWater temp
2015-Jul-04 17:25N 37°38' E 023°46'1012.1
2015-Jul-04 16:33N 37°46' E 023°38'1111.2
2015-Jul-04 15:33N 37°50' E 023°25'1312.5
2015-Jul-04 14:32N 37°52' E 023°09'19 3.8
2015-Jul-04 09:33N 38°08' E 022°56'  
2015-Jun-29 15:06N 38°11' E 022°58'3 5.7
2015-Jun-29 14:32N 38°10' E 022°54'39211.9
2015-Jun-28 05:29N 34°53' E 015°53'11012.0
2015-Jun-27 20:18N 33°44' E 014°09'912.0
2015-Jun-27 19:33N 33°38' E 014°01'1212.0
2015-Jun-27 18:32N 33°30' E 013°50'2612.0
2015-Jun-27 16:21N 33°14' E 013°25'2211.3
2015-Jun-27 14:24N 32°55' E 013°12'164 6.2
2015-Jun-26 12:10N 35°30' E 012°12'2710.3
2015-Jun-26 09:30N 35°56' E 011°60'38411.2
2015-Jun-24 23:14N 38°41' E 004°44'811.9
2015-Jun-24 22:33N 38°44' E 004°34'  
Track history (hours):
 
Tides and Currents Weather Stations Pressure Air Temp Water Temp Dewpoint Dewpoint Depression Visibility Wind Speed Wind Dir Waves Ship Positions

Lifter

Last reported at 2015-Jul-04 17:25 UTC. Time now 2015-Jul-07 21:59 UTC.
Position N 37°38' E 023°46'.

Length 118 m; draft 5.9 m.

Type: Ship. MMSI: 305175000.

Date/timePositionNaut miles runAvg speedWind from/ knotsBaromVisibWave heightAir tempDewpointWater temp
2015-Jul-04 17:25N 37°38' E 023°46'1012.1
2015-Jul-04 16:33N 37°46' E 023°38'1111.2
2015-Jul-04 15:33N 37°50' E 023°25'1312.5
2015-Jul-04 14:32N 37°52' E 023°09'19 3.8
2015-Jul-04 09:33N 38°08' E 022°56'  
2015-Jun-29 15:06N 38°11' E 022°58'3 5.7
2015-Jun-29 14:32N 38°10' E 022°54'39211.9
2015-Jun-28 05:29N 34°53' E 015°53'11012.0
2015-Jun-27 20:18N 33°44' E 014°09'912.0
2015-Jun-27 19:33N 33°38' E 014°01'1212.0
2015-Jun-27 18:32N 33°30' E 013°50'2612.0
2015-Jun-27 16:21N 33°14' E 013°25'2211.3
2015-Jun-27 14:24N 32°55' E 013°12'164 6.2
2015-Jun-26 12:10N 35°30' E 012°12'2710.3
2015-Jun-26 09:30N 35°56' E 011°60'38411.2
2015-Jun-24 23:14N 38°41' E 004°44'811.9
2015-Jun-24 22:33N 38°44' E 004°34'  

Dump ship's entire track history